createdAt,value
2022-11-20T00:16:01.083Z,95
2022-11-20T00:31:02.178Z,95
2022-11-20T00:46:03.074Z,95
2022-11-20T01:00:03.908Z,95
2022-11-20T01:15:59.864Z,95
2022-11-20T01:31:00.840Z,95
2022-11-20T01:46:01.723Z,95
2022-11-20T02:00:02.737Z,95
2022-11-20T02:16:03.674Z,95
2022-11-20T02:31:00.013Z,95
2022-11-20T02:46:01.440Z,95
2022-11-20T03:00:02.474Z,95
2022-11-20T03:16:03.510Z,95
2022-11-20T03:31:04.463Z,95
2022-11-20T03:46:00.304Z,95
2022-11-20T04:00:01.231Z,95
2022-11-20T04:16:02.270Z,95
2022-11-20T04:31:03.568Z,95
2022-11-20T04:45:59.771Z,95
2022-11-20T05:00:00.411Z,95
2022-11-20T05:16:01.448Z,94
2022-11-20T05:31:02.372Z,94
2022-11-20T05:46:03.228Z,94
2022-11-20T06:00:04.222Z,94
2022-11-20T06:16:00.158Z,94
2022-11-20T06:31:01.106Z,93
2022-11-20T06:46:02.169Z,93
2022-11-20T07:00:02.969Z,92
2022-11-20T07:16:04.024Z,92
2022-11-20T07:30:59.825Z,91
2022-11-20T07:46:01.378Z,91
2022-11-20T08:00:01.884Z,90
2022-11-20T08:16:03.607Z,90
2022-11-20T08:31:00.055Z,89
2022-11-20T08:46:00.867Z,88
2022-11-20T09:00:06.394Z,89
2022-11-20T09:16:02.833Z,88
2022-11-20T09:31:03.812Z,88
2022-11-20T09:45:59.632Z,88
2022-11-20T10:00:00.743Z,89
2022-11-20T10:16:01.670Z,88
2022-11-20T10:31:02.689Z,85
2022-11-20T10:46:03.649Z,84
2022-11-20T11:00:04.408Z,81
2022-11-20T11:16:00.484Z,79
2022-11-20T11:31:01.219Z,76
2022-11-20T11:46:02.233Z,76
2022-11-20T12:00:03.358Z,75
2022-11-20T12:15:59.868Z,78
2022-11-20T12:31:00.621Z,77
2022-11-20T12:46:01.558Z,78
2022-11-20T13:00:02.129Z,78
2022-11-20T13:16:03.205Z,79
2022-11-20T13:31:04.388Z,79
2022-11-20T13:46:00.351Z,80
2022-11-20T14:00:01.133Z,81
2022-11-20T14:16:01.900Z,81
2022-11-20T14:31:03.239Z,81
2022-11-20T14:46:04.001Z,82
2022-11-20T14:59:59.797Z,82
2022-11-20T15:16:00.707Z,83
2022-11-20T15:31:01.620Z,83
2022-11-20T15:46:02.419Z,83
2022-11-20T16:00:03.078Z,84
2022-11-20T16:16:04.107Z,84
2022-11-20T16:31:00.070Z,85
2022-11-20T16:46:01.050Z,85
2022-11-20T17:00:02.700Z,85
2022-11-20T17:16:03.151Z,85
2022-11-20T17:31:03.970Z,84
2022-11-20T17:45:59.719Z,84
2022-11-20T18:00:00.742Z,84
2022-11-20T18:16:01.862Z,84
2022-11-20T18:31:02.839Z,84
2022-11-20T18:46:03.462Z,84
2022-11-20T19:00:08.978Z,84
2022-11-20T19:16:00.377Z,85
2022-11-20T19:31:01.400Z,85
2022-11-20T19:46:02.587Z,86
2022-11-20T20:00:03.355Z,87
2022-11-20T20:15:59.599Z,87
2022-11-20T20:31:00.355Z,88
2022-11-20T20:46:01.121Z,87
2022-11-20T21:00:01.862Z,87
2022-11-20T21:16:02.900Z,87
2022-11-20T21:31:03.750Z,87
2022-11-20T21:46:04.548Z,87
2022-11-20T22:00:00.442Z,87
2022-11-20T22:16:01.518Z,87
2022-11-20T22:31:02.354Z,88
2022-11-20T22:46:03.398Z,88
2022-11-20T23:00:04.208Z,88
2022-11-20T23:16:00.195Z,89
2022-11-20T23:31:01.014Z,88
2022-11-20T23:46:01.761Z,89
